createdAt,value
2019-06-25T00:01:52.212Z,25.50
2019-06-25T00:04:21.583Z,25.50
2019-06-25T00:06:50.952Z,25.50
2019-06-25T00:09:20.378Z,25.50
2019-06-25T00:11:49.730Z,25.50
2019-06-25T00:14:19.113Z,25.50
2019-06-25T00:16:52.401Z,25.40
2019-06-25T00:19:20.852Z,25.40
2019-06-25T00:21:50.169Z,25.30
2019-06-25T00:24:19.477Z,25.30
2019-06-25T00:26:48.773Z,25.20
2019-06-25T00:29:18.113Z,25.20
2019-06-25T00:31:47.396Z,25.20
2019-06-25T00:34:16.756Z,25.20
2019-06-25T00:36:46.040Z,25.10
2019-06-25T00:39:15.395Z,25.10
2019-06-25T00:41:44.713Z,25.10
2019-06-25T00:44:14.095Z,25.10
2019-06-25T00:46:43.476Z,25.00
2019-06-25T00:49:12.828Z,25.00
2019-06-25T00:51:42.163Z,25.00
2019-06-25T00:54:11.451Z,25.00
2019-06-25T00:56:40.780Z,24.90
2019-06-25T00:59:10.074Z,24.90
2019-06-25T01:01:39.353Z,24.90
2019-06-25T01:04:08.661Z,24.80
2019-06-25T01:06:37.960Z,24.80
2019-06-25T01:09:08.249Z,24.80
2019-06-25T01:11:37.629Z,24.80
2019-06-25T01:14:06.997Z,24.70
2019-06-25T01:16:36.323Z,24.70
2019-06-25T01:19:05.659Z,24.60
2019-06-25T01:21:34.988Z,24.60
2019-06-25T01:24:04.324Z,24.60
2019-06-25T01:26:33.643Z,24.40
2019-06-25T01:29:02.940Z,24.40
2019-06-25T01:31:32.216Z,24.40
2019-06-25T01:34:01.528Z,24.30
2019-06-25T01:36:30.796Z,24.30
2019-06-25T01:39:00.157Z,24.20
2019-06-25T01:41:29.444Z,24.20
2019-06-25T01:43:58.815Z,24.30
2019-06-25T01:46:28.187Z,24.20
2019-06-25T01:48:57.492Z,24.20
2019-06-25T01:51:26.789Z,24.30
2019-06-25T01:53:56.121Z,24.20
2019-06-25T01:56:25.458Z,24.30
2019-06-25T01:58:54.798Z,24.30
2019-06-25T02:01:24.080Z,24.30
2019-06-25T02:03:53.402Z,24.30
2019-06-25T02:06:22.885Z,24.30
2019-06-25T02:08:52.224Z,24.30
2019-06-25T02:11:21.499Z,24.30
2019-06-25T02:13:50.861Z,24.30
2019-06-25T02:16:20.200Z,24.20
2019-06-25T02:18:49.534Z,24.20
2019-06-25T02:21:18.882Z,24.20
2019-06-25T02:23:48.231Z,24.20
2019-06-25T02:26:17.566Z,24.20
2019-06-25T02:28:47.072Z,24.10
2019-06-25T02:31:16.447Z,24.10
2019-06-25T02:33:45.931Z,24.00
2019-06-25T02:36:15.346Z,24.00
2019-06-25T02:38:44.709Z,24.00
2019-06-25T02:41:13.996Z,24.00
2019-06-25T02:43:43.748Z,23.90
2019-06-25T02:46:13.957Z,23.90
2019-06-25T02:48:43.281Z,23.90
2019-06-25T02:51:12.686Z,23.80
2019-06-25T02:53:41.986Z,23.80
2019-06-25T02:56:11.433Z,23.80
2019-06-25T02:58:40.841Z,23.70
2019-06-25T03:01:27.757Z,23.70
2019-06-25T03:03:41.228Z,23.70
2019-06-25T03:06:10.577Z,23.70
2019-06-25T03:08:39.869Z,23.60
2019-06-25T03:11:09.251Z,23.70
2019-06-25T03:13:38.746Z,23.70
2019-06-25T03:16:08.086Z,23.70
2019-06-25T03:18:37.371Z,23.80
2019-06-25T03:21:06.722Z,23.80
2019-06-25T03:23:36.049Z,23.80
2019-06-25T03:26:05.423Z,23.90
2019-06-25T03:28:34.980Z,23.90
2019-06-25T03:31:04.314Z,23.90
2019-06-25T03:33:33.836Z,23.90
2019-06-25T03:36:03.261Z,23.90
2019-06-25T03:38:32.589Z,24.00
2019-06-25T03:41:02.077Z,24.00
2019-06-25T03:43:31.665Z,24.10
2019-06-25T03:46:00.989Z,24.20
2019-06-25T03:48:30.380Z,24.20
2019-06-25T03:50:59.765Z,24.30
2019-06-25T03:53:30.414Z,24.40
2019-06-25T03:55:59.876Z,24.50
2019-06-25T03:58:29.223Z,24.60
2019-06-25T04:00:58.537Z,24.80
2019-06-25T04:03:27.903Z,25.10
2019-06-25T04:05:57.232Z,25.40
2019-06-25T04:08:26.573Z,25.60
2019-06-25T04:10:55.911Z,25.80
2019-06-25T04:13:25.300Z,26.20
2019-06-25T04:15:54.632Z,26.60
2019-06-25T04:18:23.971Z,27.30
2019-06-25T04:20:53.317Z,27.90
2019-06-25T04:23:22.651Z,28.40
2019-06-25T04:25:51.948Z,28.70
2019-06-25T04:28:21.273Z,28.90
2019-06-25T04:30:50.595Z,28.80
2019-06-25T04:33:19.901Z,28.50
2019-06-25T04:35:49.277Z,28.20
2019-06-25T04:38:18.698Z,27.90
2019-06-25T04:40:48.051Z,27.80
2019-06-25T04:43:17.466Z,27.90
2019-06-25T04:45:46.796Z,27.90
2019-06-25T04:48:16.140Z,27.90
2019-06-25T04:50:45.464Z,27.70
2019-06-25T04:53:14.800Z,27.50
2019-06-25T04:55:44.160Z,27.30
2019-06-25T04:58:13.498Z,27.10
2019-06-25T05:00:43.252Z,27.10
2019-06-25T05:03:12.740Z,27.20
2019-06-25T05:05:42.089Z,27.30
2019-06-25T05:08:11.415Z,27.60
2019-06-25T05:10:40.762Z,27.90
2019-06-25T05:13:10.139Z,28.40
2019-06-25T05:15:41.207Z,29.20
2019-06-25T05:18:10.529Z,30.00
2019-06-25T05:20:39.887Z,30.00
2019-06-25T05:23:09.205Z,30.00
2019-06-25T05:25:38.807Z,30.00
2019-06-25T05:28:08.163Z,29.90
2019-06-25T05:30:37.687Z,30.00
2019-06-25T05:33:07.021Z,29.90
2019-06-25T05:35:38.190Z,29.60
2019-06-25T05:38:07.596Z,29.60
2019-06-25T05:40:40.999Z,29.50
2019-06-25T05:43:08.022Z,29.80
2019-06-25T05:45:37.460Z,30.00
2019-06-25T05:48:06.983Z,29.90
2019-06-25T05:50:36.413Z,29.70
2019-06-25T05:53:05.781Z,29.50
2019-06-25T05:55:36.891Z,29.30
2019-06-25T05:58:06.387Z,29.30
2019-06-25T06:00:35.785Z,29.20
2019-06-25T06:03:19.316Z,29.20
2019-06-25T06:05:36.577Z,29.40
2019-06-25T06:08:25.000Z,29.90
2019-06-25T06:10:54.360Z,30.40
2019-06-25T06:13:23.924Z,31.30
2019-06-25T06:15:53.276Z,31.80
2019-06-25T06:18:41.794Z,32.60
2019-06-25T06:21:11.293Z,33.10
2019-06-25T06:23:40.766Z,33.60
2019-06-25T06:26:17.466Z,33.90
2019-06-25T06:28:41.485Z,34.50
2019-06-25T06:31:16.905Z,35.00
2019-06-25T06:33:41.946Z,35.00
2019-06-25T06:36:11.343Z,34.50
2019-06-25T06:38:40.788Z,34.40
2019-06-25T06:41:10.278Z,34.30
2019-06-25T06:43:39.657Z,34.10
2019-06-25T06:46:08.995Z,33.70
2019-06-25T06:48:38.355Z,33.40
2019-06-25T06:51:07.707Z,32.90
2019-06-25T06:53:37.313Z,32.70
2019-06-25T06:56:06.773Z,32.50
2019-06-25T06:58:36.112Z,32.60
2019-06-25T07:01:05.526Z,32.60
2019-06-25T07:03:34.871Z,32.90
2019-06-25T07:06:04.547Z,33.00
2019-06-25T07:08:33.879Z,33.40
2019-06-25T07:11:03.227Z,33.40
2019-06-25T07:13:34.476Z,33.30
2019-06-25T07:16:04.310Z,33.40
2019-06-25T07:18:33.704Z,33.70
2019-06-25T07:21:03.045Z,34.00
2019-06-25T07:23:33.480Z,34.50
2019-06-25T07:26:02.883Z,34.90
2019-06-25T07:28:32.249Z,35.40
2019-06-25T07:31:01.629Z,35.60
2019-06-25T07:33:33.948Z,35.80
2019-06-25T07:36:02.032Z,36.10
2019-06-25T07:38:31.364Z,36.30
2019-06-25T07:41:00.847Z,36.80
2019-06-25T07:43:30.285Z,37.30
2019-06-25T07:45:59.818Z,37.60
2019-06-25T07:48:29.225Z,38.10
2019-06-25T07:50:58.525Z,38.00
2019-06-25T07:53:27.869Z,37.90
2019-06-25T07:55:57.209Z,37.80
2019-06-25T07:58:26.564Z,37.80
2019-06-25T08:00:55.972Z,37.90
2019-06-25T08:03:28.673Z,38.20
2019-06-25T08:05:56.429Z,38.40
2019-06-25T08:08:25.806Z,38.40
2019-06-25T08:10:55.287Z,38.30
2019-06-25T08:13:24.635Z,38.00
2019-06-25T08:15:53.985Z,38.20
2019-06-25T08:18:23.360Z,38.40
2019-06-25T08:20:52.867Z,38.50
2019-06-25T08:23:23.327Z,38.70
2019-06-25T08:25:53.635Z,39.10
2019-06-25T08:28:23.032Z,39.20
2019-06-25T08:30:52.366Z,38.70
2019-06-25T08:33:21.949Z,39.00
2019-06-25T08:35:51.267Z,39.50
2019-06-25T08:38:20.713Z,39.70
2019-06-25T08:40:50.389Z,39.60
2019-06-25T08:43:20.303Z,39.50
2019-06-25T08:45:49.652Z,39.70
2019-06-25T08:48:19.182Z,39.90
2019-06-25T08:50:48.507Z,40.50
2019-06-25T08:53:18.164Z,41.00
2019-06-25T08:55:47.516Z,41.10
2019-06-25T08:58:16.905Z,40.70
2019-06-25T09:00:46.278Z,40.10
2019-06-25T09:03:15.760Z,39.50
2019-06-25T09:05:45.100Z,38.80
2019-06-25T09:08:14.431Z,38.60
2019-06-25T09:10:43.811Z,38.20
2019-06-25T09:13:13.337Z,37.80
2019-06-25T09:15:42.816Z,38.00
2019-06-25T09:18:12.264Z,38.30
2019-06-25T09:20:42.056Z,38.30
2019-06-25T09:23:11.385Z,38.20
2019-06-25T09:25:40.700Z,38.20
2019-06-25T09:28:10.057Z,38.00
2019-06-25T09:30:39.515Z,38.30
2019-06-25T09:33:09.052Z,39.10
2019-06-25T09:35:38.453Z,40.00
2019-06-25T09:38:07.768Z,40.80
2019-06-25T09:40:35.558Z,41.50
2019-06-25T09:43:03.319Z,42.20
2019-06-25T09:45:34.888Z,42.40
2019-06-25T09:48:06.176Z,42.60
2019-06-25T09:50:35.593Z,42.70
2019-06-25T09:53:05.058Z,42.90
2019-06-25T09:55:34.444Z,43.70
2019-06-25T09:58:03.793Z,44.40
2019-06-25T10:00:58.393Z,44.30
2019-06-25T10:03:27.965Z,44.40
2019-06-25T10:05:57.506Z,44.10
2019-06-25T10:08:26.901Z,44.00
2019-06-25T10:10:56.246Z,43.70
2019-06-25T10:13:25.670Z,43.60
2019-06-25T10:15:55.243Z,43.30
2019-06-25T10:18:24.738Z,43.30
2019-06-25T10:20:54.146Z,43.50
2019-06-25T10:23:23.592Z,43.60
2019-06-25T10:25:53.004Z,44.40
2019-06-25T10:28:30.164Z,45.40
2019-06-25T10:30:54.579Z,46.10
2019-06-25T10:33:24.729Z,45.90
2019-06-25T10:35:54.152Z,45.10
2019-06-25T10:38:23.464Z,44.40
2019-06-25T10:40:52.812Z,43.70
2019-06-25T10:43:22.183Z,43.20
2019-06-25T10:45:51.698Z,42.70
2019-06-25T10:48:26.178Z,42.90
2019-06-25T10:50:52.229Z,43.00
2019-06-25T10:53:21.645Z,43.30
2019-06-25T10:55:50.997Z,43.20
2019-06-25T10:58:20.840Z,43.20
2019-06-25T11:00:53.009Z,42.80
2019-06-25T11:03:22.664Z,42.10
2019-06-25T11:06:05.011Z,41.60
2019-06-25T11:08:25.285Z,41.10
2019-06-25T11:10:54.772Z,40.30
2019-06-25T11:13:25.336Z,39.50
2019-06-25T11:15:54.745Z,38.70
2019-06-25T11:18:24.259Z,38.00
2019-06-25T11:20:53.780Z,37.70
2019-06-25T11:23:23.128Z,37.50
2019-06-25T11:26:16.541Z,37.20
2019-06-25T11:28:24.037Z,36.90
2019-06-25T11:30:53.365Z,36.80
2019-06-25T11:33:22.690Z,36.70
2019-06-25T11:35:52.039Z,36.50
2019-06-25T11:38:21.457Z,36.00
2019-06-25T11:40:50.803Z,36.00
2019-06-25T11:43:20.454Z,36.20
2019-06-25T11:45:49.779Z,36.30
2019-06-25T11:48:19.308Z,36.30
2019-06-25T11:50:48.664Z,36.30
2019-06-25T11:53:17.946Z,36.20
2019-06-25T11:55:47.357Z,36.10
2019-06-25T11:58:21.065Z,35.90
2019-06-25T12:00:47.858Z,35.80
2019-06-25T12:03:17.533Z,35.80
2019-06-25T12:05:47.100Z,35.80
2019-06-25T12:08:16.475Z,35.80
2019-06-25T12:10:45.880Z,35.80
2019-06-25T12:13:17.112Z,35.80
2019-06-25T12:15:48.871Z,35.90
2019-06-25T12:18:18.352Z,36.00
2019-06-25T12:20:47.690Z,36.10
2019-06-25T12:23:17.030Z,36.30
2019-06-25T12:25:46.444Z,36.20
2019-06-25T12:28:15.883Z,36.20
2019-06-25T12:30:46.931Z,36.10
2019-06-25T12:33:16.448Z,36.10
2019-06-25T12:35:45.744Z,36.10
2019-06-25T12:38:15.152Z,36.10
2019-06-25T12:40:44.518Z,36.00
2019-06-25T12:43:13.912Z,36.20
2019-06-25T12:45:43.249Z,36.40
2019-06-25T12:48:12.699Z,36.50
2019-06-25T12:50:42.156Z,36.50
2019-06-25T12:53:11.578Z,36.40
2019-06-25T12:55:42.486Z,36.50
2019-06-25T12:58:11.922Z,36.70
2019-06-25T13:00:41.487Z,36.80
2019-06-25T13:03:10.915Z,37.00
2019-06-25T13:05:40.677Z,37.00
2019-06-25T13:08:10.307Z,37.00
2019-06-25T13:10:44.228Z,36.90
2019-06-25T13:13:20.275Z,37.00
2019-06-25T13:15:49.863Z,37.00
2019-06-25T13:18:19.747Z,37.10
2019-06-25T13:20:49.399Z,37.30
2019-06-25T13:23:19.314Z,37.60
2019-06-25T13:25:48.996Z,37.80
2019-06-25T13:28:18.729Z,38.10
2019-06-25T13:30:48.044Z,38.30
2019-06-25T13:33:17.523Z,38.40
2019-06-25T13:35:46.947Z,38.50
2019-06-25T13:38:17.665Z,38.70
2019-06-25T13:40:47.053Z,39.00
2019-06-25T13:43:16.398Z,39.10
2019-06-25T13:45:47.183Z,39.00
2019-06-25T13:48:16.986Z,38.80
2019-06-25T13:50:46.392Z,38.70
2019-06-25T13:53:15.805Z,38.80
2019-06-25T13:55:45.189Z,38.90
2019-06-25T13:58:14.636Z,38.80
2019-06-25T14:00:44.193Z,38.70
2019-06-25T14:03:13.597Z,38.70
2019-06-25T14:05:43.228Z,38.70
2019-06-25T14:08:15.325Z,38.70
2019-06-25T14:10:47.794Z,38.70
2019-06-25T14:13:17.426Z,38.80
2019-06-25T14:15:47.119Z,38.80
2019-06-25T14:18:16.651Z,38.70
2019-06-25T14:20:46.166Z,38.60
2019-06-25T14:23:15.637Z,38.80
2019-06-25T14:25:45.154Z,38.90
2019-06-25T14:28:14.551Z,39.00
2019-06-25T14:30:43.962Z,39.00
2019-06-25T14:33:13.699Z,38.80
2019-06-25T14:35:43.172Z,38.60
2019-06-25T14:38:16.252Z,38.70
2019-06-25T14:40:43.912Z,38.70
2019-06-25T14:43:13.451Z,38.70
2019-06-25T14:45:43.033Z,38.60
2019-06-25T14:48:12.479Z,38.60
2019-06-25T14:50:41.792Z,38.60
2019-06-25T14:53:11.281Z,38.60
2019-06-25T14:55:40.718Z,38.60
2019-06-25T14:58:10.147Z,38.60
2019-06-25T15:00:39.499Z,38.70
2019-06-25T15:03:08.929Z,38.70
2019-06-25T15:05:38.353Z,38.80
2019-06-25T15:08:07.870Z,38.70
2019-06-25T15:10:37.365Z,38.60
2019-06-25T15:13:06.795Z,38.60
2019-06-25T15:15:36.183Z,38.60
2019-06-25T15:18:05.943Z,38.60
2019-06-25T15:20:37.113Z,38.80
2019-06-25T15:23:06.550Z,38.90
2019-06-25T15:25:36.116Z,39.00
2019-06-25T15:28:05.634Z,39.10
2019-06-25T15:30:35.749Z,39.20
2019-06-25T15:33:05.113Z,39.20
2019-06-25T15:35:34.447Z,39.10
2019-06-25T15:38:05.016Z,39.00
2019-06-25T15:40:34.416Z,38.80
2019-06-25T15:43:03.786Z,38.60
2019-06-25T15:45:33.108Z,38.50
2019-06-25T15:48:02.491Z,38.30
2019-06-25T15:50:32.919Z,38.10
2019-06-25T15:53:02.325Z,38.00
2019-06-25T15:55:31.667Z,37.80
2019-06-25T15:58:01.092Z,38.00
2019-06-25T16:00:30.651Z,37.90
2019-06-25T16:02:59.972Z,38.00
2019-06-25T16:05:29.352Z,37.90
2019-06-25T16:07:58.658Z,37.90
2019-06-25T16:10:28.035Z,37.90
2019-06-25T16:12:57.342Z,37.90
2019-06-25T16:15:40.629Z,37.90
2019-06-25T16:17:58.288Z,37.90
2019-06-25T16:20:29.113Z,37.90
2019-06-25T16:22:58.510Z,37.80
2019-06-25T16:25:29.328Z,37.70
2019-06-25T16:27:58.860Z,37.50
2019-06-25T16:30:28.574Z,37.40
2019-06-25T16:32:58.276Z,37.30
2019-06-25T16:35:27.630Z,37.10
2019-06-25T16:37:57.000Z,37.00
2019-06-25T16:40:26.322Z,36.80
2019-06-25T16:42:55.631Z,36.70
2019-06-25T16:45:25.032Z,36.60
2019-06-25T16:47:54.704Z,36.50
2019-06-25T16:50:24.180Z,36.50
2019-06-25T16:52:53.551Z,36.40
2019-06-25T16:55:22.961Z,36.30
2019-06-25T16:57:52.418Z,36.30
2019-06-25T17:00:21.810Z,36.30
2019-06-25T17:02:54.561Z,36.30
2019-06-25T17:05:31.796Z,36.40
2019-06-25T17:07:55.159Z,36.50
2019-06-25T17:10:24.525Z,36.60
2019-06-25T17:12:53.980Z,36.60
2019-06-25T17:15:23.275Z,36.70
2019-06-25T17:17:52.649Z,36.70
2019-06-25T17:20:23.903Z,36.70
2019-06-25T17:23:07.153Z,36.80
2019-06-25T17:25:27.730Z,36.90
2019-06-25T17:27:56.860Z,36.90
2019-06-25T17:30:26.271Z,37.00
2019-06-25T17:32:55.877Z,37.00
2019-06-25T17:35:26.624Z,37.00
2019-06-25T17:37:56.156Z,37.00
2019-06-25T17:40:25.581Z,36.90
2019-06-25T17:42:54.883Z,36.80
2019-06-25T17:45:24.240Z,36.80
2019-06-25T17:47:55.461Z,36.70
2019-06-25T17:50:24.833Z,36.60
2019-06-25T17:52:54.362Z,36.50
2019-06-25T17:55:23.841Z,36.40
2019-06-25T17:57:53.345Z,36.30
2019-06-25T18:00:23.110Z,36.20
2019-06-25T18:02:52.577Z,36.10
2019-06-25T18:05:23.114Z,36.00
2019-06-25T18:07:52.851Z,35.90
2019-06-25T18:10:22.350Z,35.80
2019-06-25T18:12:54.247Z,35.60
2019-06-25T18:15:25.573Z,35.60
2019-06-25T18:17:55.028Z,35.40
2019-06-25T18:20:24.528Z,35.30
2019-06-25T18:22:54.920Z,35.20
2019-06-25T18:25:26.047Z,35.20
2019-06-25T18:27:55.487Z,35.10
2019-06-25T18:30:24.910Z,35.00
2019-06-25T18:32:54.301Z,34.90
2019-06-25T18:35:23.706Z,34.80
2019-06-25T18:37:53.121Z,34.70
2019-06-25T18:40:24.216Z,34.60
2019-06-25T18:42:53.771Z,34.50
2019-06-25T18:45:23.250Z,34.40
2019-06-25T18:47:52.652Z,34.30
2019-06-25T18:50:22.130Z,34.20
2019-06-25T18:52:51.640Z,34.10
2019-06-25T18:55:21.247Z,34.00
2019-06-25T18:57:50.829Z,33.90
2019-06-25T19:00:21.969Z,33.80
2019-06-25T19:02:51.437Z,33.70
2019-06-25T19:05:21.089Z,33.70
2019-06-25T19:07:50.483Z,33.50
2019-06-25T19:10:20.020Z,33.40
2019-06-25T19:12:49.441Z,33.40
2019-06-25T19:15:19.070Z,33.30
2019-06-25T19:17:48.468Z,33.20
2019-06-25T19:20:18.495Z,33.10
2019-06-25T19:22:47.820Z,33.10
2019-06-25T19:25:17.342Z,32.90
2019-06-25T19:27:46.650Z,32.90
2019-06-25T19:30:16.203Z,32.80
2019-06-25T19:32:45.571Z,32.70
2019-06-25T19:35:15.045Z,32.60
2019-06-25T19:37:45.364Z,32.50
2019-06-25T19:40:14.950Z,32.50
2019-06-25T19:42:44.483Z,32.30
2019-06-25T19:45:14.182Z,32.30
2019-06-25T19:47:50.422Z,32.10
2019-06-25T19:50:17.708Z,32.10
2019-06-25T19:52:47.058Z,32.00
2019-06-25T19:55:18.942Z,31.90
2019-06-25T19:57:48.481Z,31.80
2019-06-25T20:00:18.524Z,31.60
2019-06-25T20:02:47.872Z,31.60
2019-06-25T20:05:17.237Z,31.50
2019-06-25T20:07:46.731Z,31.40
2019-06-25T20:10:16.301Z,31.30
2019-06-25T20:12:45.698Z,31.20
2019-06-25T20:15:15.190Z,31.20
2019-06-25T20:17:44.636Z,31.10
2019-06-25T20:20:14.294Z,31.00
2019-06-25T20:22:43.660Z,30.90
2019-06-25T20:25:13.121Z,30.90
2019-06-25T20:27:42.589Z,30.80
2019-06-25T20:30:12.489Z,30.70
2019-06-25T20:32:41.875Z,30.60
2019-06-25T20:35:11.374Z,30.60
2019-06-25T20:37:40.839Z,30.50
2019-06-25T20:40:10.571Z,30.50
2019-06-25T20:42:40.015Z,30.40
2019-06-25T20:45:12.234Z,30.30
2019-06-25T20:47:41.806Z,30.20
2019-06-25T20:50:11.727Z,30.20
2019-06-25T20:52:41.108Z,30.10
2019-06-25T20:55:10.794Z,30.00
2019-06-25T20:57:40.169Z,29.90
2019-06-25T21:00:09.751Z,29.80
2019-06-25T21:02:39.420Z,29.70
2019-06-25T21:05:09.249Z,29.70
2019-06-25T21:07:38.611Z,29.60
2019-06-25T21:10:08.060Z,29.50
2019-06-25T21:12:37.468Z,29.40
2019-06-25T21:15:09.854Z,29.30
2019-06-25T21:18:02.407Z,29.20
2019-06-25T21:20:33.819Z,29.20
2019-06-25T21:23:03.187Z,29.10
2019-06-25T21:25:34.378Z,29.00
2019-06-25T21:28:08.585Z,28.90
2019-06-25T21:30:38.014Z,28.80
2019-06-25T21:33:07.611Z,28.70
2019-06-25T21:35:36.973Z,28.70
2019-06-25T21:38:06.318Z,28.60
2019-06-25T21:40:35.694Z,28.50
2019-06-25T21:43:05.014Z,28.50
2019-06-25T21:45:34.499Z,28.40
2019-06-25T21:48:06.034Z,28.30
2019-06-25T21:50:39.483Z,28.30
2019-06-25T21:53:08.963Z,28.20
2019-06-25T21:55:38.352Z,28.10
2019-06-25T21:58:07.726Z,28.00
2019-06-25T22:00:40.025Z,28.00
2019-06-25T22:03:09.450Z,27.90
2019-06-25T22:05:38.903Z,27.90
2019-06-25T22:08:08.293Z,27.80
2019-06-25T22:10:37.587Z,27.80
2019-06-25T22:13:06.964Z,27.70
2019-06-25T22:15:41.052Z,27.60
2019-06-25T22:18:10.421Z,27.60
2019-06-25T22:20:39.784Z,27.50
2019-06-25T22:23:09.086Z,27.50
2019-06-25T22:25:38.428Z,27.40
2019-06-25T22:28:07.801Z,27.40
2019-06-25T22:30:37.248Z,27.30
2019-06-25T22:33:08.462Z,27.30
2019-06-25T22:35:37.763Z,27.20
2019-06-25T22:38:07.112Z,27.20
2019-06-25T22:40:36.423Z,27.10
2019-06-25T22:43:10.327Z,27.10
2019-06-25T22:45:39.679Z,27.00
2019-06-25T22:48:09.018Z,27.00
2019-06-25T22:50:46.935Z,26.90
2019-06-25T22:53:09.553Z,26.90
2019-06-25T22:55:38.914Z,26.90
2019-06-25T22:58:08.228Z,26.80
2019-06-25T23:00:37.587Z,26.80
2019-06-25T23:03:06.908Z,26.80
2019-06-25T23:05:36.237Z,26.80
2019-06-25T23:08:05.661Z,26.70
2019-06-25T23:10:35.037Z,26.70
2019-06-25T23:13:04.382Z,26.60
2019-06-25T23:15:33.759Z,26.60
2019-06-25T23:18:03.173Z,26.50
2019-06-25T23:20:32.452Z,26.50
2019-06-25T23:23:01.780Z,26.50
2019-06-25T23:25:31.056Z,26.40
2019-06-25T23:28:00.380Z,26.40
2019-06-25T23:30:29.683Z,26.40
2019-06-25T23:32:59.015Z,26.40
2019-06-25T23:35:28.402Z,26.40
2019-06-25T23:37:57.747Z,26.40
2019-06-25T23:40:27.062Z,26.40
2019-06-25T23:43:09.188Z,26.30
2019-06-25T23:45:27.486Z,26.40
2019-06-25T23:47:56.900Z,26.40
2019-06-25T23:50:26.205Z,26.40
2019-06-25T23:52:55.658Z,26.40
2019-06-25T23:55:25.004Z,26.40
2019-06-25T23:57:54.401Z,26.50
